sensor_id;sensor_type;location;lat;lon;timestamp;P1;durP1;ratioP1;P2;durP2;ratioP2
23376;SDS011;14353;46.070;13.222;2023-04-01T00:01:40;2.67;;;2.28;;
23376;SDS011;14353;46.070;13.222;2023-04-01T00:04:06;2.70;;;2.17;;
23376;SDS011;14353;46.070;13.222;2023-04-01T00:06:32;2.20;;;1.83;;
23376;SDS011;14353;46.070;13.222;2023-04-01T00:08:57;2.92;;;2.30;;
23376;SDS011;14353;46.070;13.222;2023-04-01T00:11:23;2.75;;;2.10;;
23376;SDS011;14353;46.070;13.222;2023-04-01T00:13:49;2.20;;;2.00;;
23376;SDS011;14353;46.070;13.222;2023-04-01T00:16:15;2.85;;;2.20;;
23376;SDS011;14353;46.070;13.222;2023-04-01T00:18:40;2.78;;;2.20;;
23376;SDS011;14353;46.070;13.222;2023-04-01T00:21:06;3.13;;;2.17;;
23376;SDS011;14353;46.070;13.222;2023-04-01T00:23:33;2.17;;;1.80;;
23376;SDS011;14353;46.070;13.222;2023-04-01T00:25:59;2.30;;;2.00;;
23376;SDS011;14353;46.070;13.222;2023-04-01T00:28:26;2.83;;;2.20;;
23376;SDS011;14353;46.070;13.222;2023-04-01T00:30:53;1.75;;;1.63;;
23376;SDS011;14353;46.070;13.222;2023-04-01T00:33:19;2.38;;;2.08;;
23376;SDS011;14353;46.070;13.222;2023-04-01T00:35:45;2.85;;;2.05;;
23376;SDS011;14353;46.070;13.222;2023-04-01T00:38:11;2.42;;;2.10;;
23376;SDS011;14353;46.070;13.222;2023-04-01T00:40:39;2.70;;;2.00;;
23376;SDS011;14353;46.070;13.222;2023-04-01T00:43:10;2.50;;;2.30;;
23376;SDS011;14353;46.070;13.222;2023-04-01T00:45:46;2.53;;;2.08;;
23376;SDS011;14353;46.070;13.222;2023-04-01T00:48:20;2.80;;;2.10;;
23376;SDS011;14353;46.070;13.222;2023-04-01T00:51:09;2.00;;;1.67;;
23376;SDS011;14353;46.070;13.222;2023-04-01T00:59:00;2.65;;;2.10;;
23376;SDS011;14353;46.070;13.222;2023-04-01T01:01:28;2.22;;;1.70;;
23376;SDS011;14353;46.070;13.222;2023-04-01T01:03:55;2.35;;;1.85;;
23376;SDS011;14353;46.070;13.222;2023-04-01T01:11:40;2.30;;;1.90;;
23376;SDS011;14353;46.070;13.222;2023-04-01T01:16:53;2.75;;;2.00;;
23376;SDS011;14353;46.070;13.222;2023-04-01T01:19:35;2.10;;;1.90;;
23376;SDS011;14353;46.070;13.222;2023-04-01T01:27:35;2.10;;;1.90;;
23376;SDS011;14353;46.070;13.222;2023-04-01T01:33:07;2.42;;;1.83;;
23376;SDS011;14353;46.070;13.222;2023-04-01T01:35:37;1.90;;;1.60;;
23376;SDS011;14353;46.070;13.222;2023-04-01T01:38:06;1.85;;;1.52;;
23376;SDS011;14353;46.070;13.222;2023-04-01T01:40:36;2.17;;;1.65;;
23376;SDS011;14353;46.070;13.222;2023-04-01T01:43:06;2.20;;;1.65;;
23376;SDS011;14353;46.070;13.222;2023-04-01T01:45:37;2.20;;;1.90;;
23376;SDS011;14353;46.070;13.222;2023-04-01T01:48:07;2.10;;;1.80;;
23376;SDS011;14353;46.070;13.222;2023-04-01T01:50:35;1.95;;;1.75;;
23376;SDS011;14353;46.070;13.222;2023-04-01T01:53:11;2.10;;;1.67;;
23376;SDS011;14353;46.070;13.222;2023-04-01T01:55:39;2.25;;;1.85;;
23376;SDS011;14353;46.070;13.222;2023-04-01T02:00:37;2.00;;;1.75;;
23376;SDS011;14353;46.070;13.222;2023-04-01T02:03:04;1.85;;;1.65;;
23376;SDS011;14353;46.070;13.222;2023-04-01T02:05:30;2.72;;;1.70;;
23376;SDS011;14353;46.070;13.222;2023-04-01T02:08:07;1.92;;;1.65;;
23376;SDS011;14353;46.070;13.222;2023-04-01T02:10:39;2.00;;;1.70;;
23376;SDS011;14353;46.070;13.222;2023-04-01T02:13:19;2.28;;;1.80;;
23376;SDS011;14353;46.070;13.222;2023-04-01T02:15:52;1.92;;;1.63;;
23376;SDS011;14353;46.070;13.222;2023-04-01T02:18:22;1.80;;;1.55;;
23376;SDS011;14353;46.070;13.222;2023-04-01T02:20:48;2.67;;;1.80;;
23376;SDS011;14353;46.070;13.222;2023-04-01T02:23:15;1.85;;;1.75;;
23376;SDS011;14353;46.070;13.222;2023-04-01T02:25:41;1.75;;;1.60;;
23376;SDS011;14353;46.070;13.222;2023-04-01T02:28:08;1.92;;;1.48;;
23376;SDS011;14353;46.070;13.222;2023-04-01T02:30:36;2.20;;;1.60;;
23376;SDS011;14353;46.070;13.222;2023-04-01T02:33:03;1.90;;;1.40;;
23376;SDS011;14353;46.070;13.222;2023-04-01T02:35:30;2.08;;;1.70;;
23376;SDS011;14353;46.070;13.222;2023-04-01T02:37:59;1.67;;;1.40;;
23376;SDS011;14353;46.070;13.222;2023-04-01T02:40:25;1.77;;;1.60;;
23376;SDS011;14353;46.070;13.222;2023-04-01T02:42:51;1.52;;;1.42;;
23376;SDS011;14353;46.070;13.222;2023-04-01T02:45:17;1.70;;;1.50;;
23376;SDS011;14353;46.070;13.222;2023-04-01T02:47:42;1.70;;;1.60;;
23376;SDS011;14353;46.070;13.222;2023-04-01T02:50:08;1.70;;;1.60;;
23376;SDS011;14353;46.070;13.222;2023-04-01T02:52:34;1.63;;;1.50;;
23376;SDS011;14353;46.070;13.222;2023-04-01T02:55:00;2.00;;;1.70;;
23376;SDS011;14353;46.070;13.222;2023-04-01T02:57:27;2.30;;;1.27;;
23376;SDS011;14353;46.070;13.222;2023-04-01T02:59:53;1.98;;;1.50;;
23376;SDS011;14353;46.070;13.222;2023-04-01T03:02:18;2.33;;;1.92;;
23376;SDS011;14353;46.070;13.222;2023-04-01T03:04:44;1.60;;;1.50;;
23376;SDS011;14353;46.070;13.222;2023-04-01T03:07:10;2.20;;;1.60;;
23376;SDS011;14353;46.070;13.222;2023-04-01T03:09:37;1.80;;;1.60;;
23376;SDS011;14353;46.070;13.222;2023-04-01T03:12:02;1.83;;;1.48;;
23376;SDS011;14353;46.070;13.222;2023-04-01T03:14:28;1.50;;;1.40;;
23376;SDS011;14353;46.070;13.222;2023-04-01T03:16:54;1.33;;;1.23;;
23376;SDS011;14353;46.070;13.222;2023-04-01T03:19:20;1.63;;;1.23;;
23376;SDS011;14353;46.070;13.222;2023-04-01T03:21:46;2.00;;;1.60;;
23376;SDS011;14353;46.070;13.222;2023-04-01T03:24:11;1.77;;;1.40;;
23376;SDS011;14353;46.070;13.222;2023-04-01T03:26:37;1.42;;;1.33;;
23376;SDS011;14353;46.070;13.222;2023-04-01T03:29:04;1.52;;;1.30;;
23376;SDS011;14353;46.070;13.222;2023-04-01T03:31:29;1.80;;;1.50;;
23376;SDS011;14353;46.070;13.222;2023-04-01T03:33:55;1.48;;;1.38;;
23376;SDS011;14353;46.070;13.222;2023-04-01T03:36:21;2.03;;;1.40;;
23376;SDS011;14353;46.070;13.222;2023-04-01T03:38:47;1.48;;;1.38;;
23376;SDS011;14353;46.070;13.222;2023-04-01T03:41:13;1.50;;;1.40;;
23376;SDS011;14353;46.070;13.222;2023-04-01T03:43:40;1.50;;;1.40;;
23376;SDS011;14353;46.070;13.222;2023-04-01T03:46:06;2.13;;;1.35;;
23376;SDS011;14353;46.070;13.222;2023-04-01T03:48:32;1.80;;;1.50;;
23376;SDS011;14353;46.070;13.222;2023-04-01T03:50:58;1.70;;;1.30;;
23376;SDS011;14353;46.070;13.222;2023-04-01T03:53:23;1.38;;;1.25;;
23376;SDS011;14353;46.070;13.222;2023-04-01T03:55:49;1.30;;;1.20;;
23376;SDS011;14353;46.070;13.222;2023-04-01T03:58:16;1.38;;;1.27;;
23376;SDS011;14353;46.070;13.222;2023-04-01T04:00:42;2.33;;;1.30;;
23376;SDS011;14353;46.070;13.222;2023-04-01T04:03:08;1.60;;;1.50;;
23376;SDS011;14353;46.070;13.222;2023-04-01T04:05:34;1.63;;;1.30;;
23376;SDS011;14353;46.070;13.222;2023-04-01T04:08:00;1.40;;;1.30;;
23376;SDS011;14353;46.070;13.222;2023-04-01T04:10:26;1.38;;;1.27;;
23376;SDS011;14353;46.070;13.222;2023-04-01T04:12:54;1.25;;;1.15;;
23376;SDS011;14353;46.070;13.222;2023-04-01T04:15:19;1.40;;;1.30;;
23376;SDS011;14353;46.070;13.222;2023-04-01T04:17:45;1.40;;;1.30;;
23376;SDS011;14353;46.070;13.222;2023-04-01T04:20:11;1.55;;;1.20;;
23376;SDS011;14353;46.070;13.222;2023-04-01T04:22:37;1.27;;;1.17;;
23376;SDS011;14353;46.070;13.222;2023-04-01T04:25:02;1.20;;;1.10;;
23376;SDS011;14353;46.070;13.222;2023-04-01T04:27:28;1.25;;;1.10;;
23376;SDS011;14353;46.070;13.222;2023-04-01T04:29:54;1.17;;;1.05;;
23376;SDS011;14353;46.070;13.222;2023-04-01T04:32:20;1.58;;;1.35;;
23376;SDS011;14353;46.070;13.222;2023-04-01T04:34:46;1.70;;;1.40;;
23376;SDS011;14353;46.070;13.222;2023-04-01T04:37:12;1.25;;;1.10;;
23376;SDS011;14353;46.070;13.222;2023-04-01T04:39:37;1.70;;;1.20;;
23376;SDS011;14353;46.070;13.222;2023-04-01T04:42:03;1.23;;;1.13;;
23376;SDS011;14353;46.070;13.222;2023-04-01T04:44:29;1.35;;;1.25;;
23376;SDS011;14353;46.070;13.222;2023-04-01T04:46:54;1.50;;;1.25;;
23376;SDS011;14353;46.070;13.222;2023-04-01T04:49:20;1.95;;;1.20;;
23376;SDS011;14353;46.070;13.222;2023-04-01T04:51:46;1.42;;;0.98;;
23376;SDS011;14353;46.070;13.222;2023-04-01T04:54:12;1.98;;;1.20;;
23376;SDS011;14353;46.070;13.222;2023-04-01T04:56:37;1.40;;;1.30;;
23376;SDS011;14353;46.070;13.222;2023-04-01T04:59:03;1.38;;;1.13;;
23376;SDS011;14353;46.070;13.222;2023-04-01T05:01:29;1.38;;;1.20;;
23376;SDS011;14353;46.070;13.222;2023-04-01T05:03:54;1.20;;;1.10;;
23376;SDS011;14353;46.070;13.222;2023-04-01T05:06:20;1.38;;;1.10;;
23376;SDS011;14353;46.070;13.222;2023-04-01T05:08:46;1.20;;;1.10;;
23376;SDS011;14353;46.070;13.222;2023-04-01T05:11:13;1.77;;;1.10;;
23376;SDS011;14353;46.070;13.222;2023-04-01T05:13:43;1.17;;;1.00;;
23376;SDS011;14353;46.070;13.222;2023-04-01T05:16:13;1.45;;;1.20;;
23376;SDS011;14353;46.070;13.222;2023-04-01T05:18:40;1.42;;;1.27;;
23376;SDS011;14353;46.070;13.222;2023-04-01T05:21:07;1.13;;;1.02;;
23376;SDS011;14353;46.070;13.222;2023-04-01T05:23:35;1.20;;;1.10;;
23376;SDS011;14353;46.070;13.222;2023-04-01T05:26:04;1.08;;;0.95;;
23376;SDS011;14353;46.070;13.222;2023-04-01T05:28:31;1.10;;;1.00;;
23376;SDS011;14353;46.070;13.222;2023-04-01T05:30:58;1.25;;;0.98;;
23376;SDS011;14353;46.070;13.222;2023-04-01T05:33:25;1.15;;;1.00;;
23376;SDS011;14353;46.070;13.222;2023-04-01T05:35:52;1.02;;;0.90;;
23376;SDS011;14353;46.070;13.222;2023-04-01T05:38:18;1.90;;;1.10;;
23376;SDS011;14353;46.070;13.222;2023-04-01T05:40:44;1.20;;;1.10;;
23376;SDS011;14353;46.070;13.222;2023-04-01T05:43:10;1.20;;;1.10;;
23376;SDS011;14353;46.070;13.222;2023-04-01T05:45:36;1.42;;;1.23;;
23376;SDS011;14353;46.070;13.222;2023-04-01T05:48:02;2.53;;;1.20;;
23376;SDS011;14353;46.070;13.222;2023-04-01T05:50:28;1.98;;;1.20;;
23376;SDS011;14353;46.070;13.222;2023-04-01T05:52:54;2.53;;;1.20;;
23376;SDS011;14353;46.070;13.222;2023-04-01T05:55:20;2.75;;;1.30;;
23376;SDS011;14353;46.070;13.222;2023-04-01T05:57:46;1.20;;;1.10;;
23376;SDS011;14353;46.070;13.222;2023-04-01T06:00:14;2.15;;;1.40;;
23376;SDS011;14353;46.070;13.222;2023-04-01T06:02:41;2.35;;;1.50;;
23376;SDS011;14353;46.070;13.222;2023-04-01T06:05:12;2.15;;;1.50;;
23376;SDS011;14353;46.070;13.222;2023-04-01T06:07:50;1.30;;;1.20;;
23376;SDS011;14353;46.070;13.222;2023-04-01T06:10:36;2.03;;;1.50;;
23376;SDS011;14353;46.070;13.222;2023-04-01T06:13:12;1.67;;;1.20;;
23376;SDS011;14353;46.070;13.222;2023-04-01T06:16:07;1.70;;;1.33;;
23376;SDS011;14353;46.070;13.222;2023-04-01T06:32:54;2.30;;;1.10;;
23376;SDS011;14353;46.070;13.222;2023-04-01T06:46:00;1.73;;;1.30;;
23376;SDS011;14353;46.070;13.222;2023-04-01T06:51:12;1.92;;;1.15;;
23376;SDS011;14353;46.070;13.222;2023-04-01T06:56:42;2.55;;;1.15;;
23376;SDS011;14353;46.070;13.222;2023-04-01T07:01:52;3.15;;;1.10;;
23376;SDS011;14353;46.070;13.222;2023-04-01T07:04:23;2.28;;;1.23;;
23376;SDS011;14353;46.070;13.222;2023-04-01T07:06:56;1.10;;;1.02;;
23376;SDS011;14353;46.070;13.222;2023-04-01T07:09:31;2.55;;;0.90;;
23376;SDS011;14353;46.070;13.222;2023-04-01T07:12:01;2.13;;;0.98;;
23376;SDS011;14353;46.070;13.222;2023-04-01T07:14:36;7.35;;;1.20;;
23376;SDS011;14353;46.070;13.222;2023-04-01T07:25:25;3.83;;;1.30;;
23376;SDS011;14353;46.070;13.222;2023-04-01T07:27:52;2.45;;;1.27;;
23376;SDS011;14353;46.070;13.222;2023-04-01T07:30:23;3.78;;;1.27;;
23376;SDS011;14353;46.070;13.222;2023-04-01T07:32:51;3.00;;;1.40;;
23376;SDS011;14353;46.070;13.222;2023-04-01T07:35:44;3.83;;;1.40;;
23376;SDS011;14353;46.070;13.222;2023-04-01T07:38:24;3.42;;;1.33;;
23376;SDS011;14353;46.070;13.222;2023-04-01T07:41:09;5.22;;;1.38;;
23376;SDS011;14353;46.070;13.222;2023-04-01T07:49:20;2.50;;;1.20;;
23376;SDS011;14353;46.070;13.222;2023-04-01T07:51:56;3.28;;;1.27;;
23376;SDS011;14353;46.070;13.222;2023-04-01T07:57:18;3.38;;;1.60;;
23376;SDS011;14353;46.070;13.222;2023-04-01T07:59:58;3.30;;;1.30;;
23376;SDS011;14353;46.070;13.222;2023-04-01T08:05:29;3.45;;;1.25;;
23376;SDS011;14353;46.070;13.222;2023-04-01T08:16:35;3.25;;;1.27;;
23376;SDS011;14353;46.070;13.222;2023-04-01T08:19:09;4.40;;;1.25;;
23376;SDS011;14353;46.070;13.222;2023-04-01T08:21:57;3.60;;;1.08;;
23376;SDS011;14353;46.070;13.222;2023-04-01T08:24:41;4.38;;;1.20;;
23376;SDS011;14353;46.070;13.222;2023-04-01T08:27:12;6.22;;;1.30;;
23376;SDS011;14353;46.070;13.222;2023-04-01T08:29:50;9.40;;;1.50;;
23376;SDS011;14353;46.070;13.222;2023-04-01T08:32:31;5.35;;;1.63;;
23376;SDS011;14353;46.070;13.222;2023-04-01T08:35:17;5.70;;;1.35;;
23376;SDS011;14353;46.070;13.222;2023-04-01T08:37:53;5.20;;;1.23;;
23376;SDS011;14353;46.070;13.222;2023-04-01T08:40:33;5.00;;;1.10;;
23376;SDS011;14353;46.070;13.222;2023-04-01T09:12:47;3.70;;;1.00;;
23376;SDS011;14353;46.070;13.222;2023-04-01T09:18:09;4.25;;;1.42;;
23376;SDS011;14353;46.070;13.222;2023-04-01T09:37:58;11.95;;;1.80;;
23376;SDS011;14353;46.070;13.222;2023-04-01T09:40:47;11.93;;;1.70;;
23376;SDS011;14353;46.070;13.222;2023-04-01T09:46:14;25.13;;;2.58;;
23376;SDS011;14353;46.070;13.222;2023-04-01T09:54:21;30.90;;;2.78;;
23376;SDS011;14353;46.070;13.222;2023-04-01T09:57:07;16.52;;;2.50;;
23376;SDS011;14353;46.070;13.222;2023-04-01T10:05:54;16.88;;;2.10;;
23376;SDS011;14353;46.070;13.222;2023-04-01T10:11:54;14.88;;;2.05;;
23376;SDS011;14353;46.070;13.222;2023-04-01T10:20:21;12.43;;;1.90;;
23376;SDS011;14353;46.070;13.222;2023-04-01T10:47:24;8.93;;;1.90;;
23376;SDS011;14353;46.070;13.222;2023-04-01T11:12:37;16.17;;;1.60;;
23376;SDS011;14353;46.070;13.222;2023-04-01T11:30:08;16.75;;;2.70;;
23376;SDS011;14353;46.070;13.222;2023-04-01T11:35:32;8.77;;;1.77;;
23376;SDS011;14353;46.070;13.222;2023-04-01T11:38:15;10.80;;;1.40;;
23376;SDS011;14353;46.070;13.222;2023-04-01T11:46:56;8.05;;;1.70;;
23376;SDS011;14353;46.070;13.222;2023-04-01T11:52:19;12.60;;;1.55;;
23376;SDS011;14353;46.070;13.222;2023-04-01T11:57:55;8.07;;;1.48;;
23376;SDS011;14353;46.070;13.222;2023-04-01T12:08:50;8.07;;;1.48;;
23376;SDS011;14353;46.070;13.222;2023-04-01T12:17:36;5.60;;;1.48;;
23376;SDS011;14353;46.070;13.222;2023-04-01T13:23:01;3.55;;;1.20;;
23376;SDS011;14353;46.070;13.222;2023-04-01T13:34:26;3.83;;;1.38;;
23376;SDS011;14353;46.070;13.222;2023-04-01T13:45:42;4.10;;;0.93;;
23376;SDS011;14353;46.070;13.222;2023-04-01T13:56:36;2.35;;;0.90;;
23376;SDS011;14353;46.070;13.222;2023-04-01T14:08:26;3.08;;;1.08;;
23376;SDS011;14353;46.070;13.222;2023-04-01T14:19:20;3.67;;;1.08;;
23376;SDS011;14353;46.070;13.222;2023-04-01T14:27:48;3.78;;;0.98;;
23376;SDS011;14353;46.070;13.222;2023-04-01T14:44:29;1.90;;;0.80;;
23376;SDS011;14353;46.070;13.222;2023-04-01T15:00:41;2.55;;;0.98;;
23376;SDS011;14353;46.070;13.222;2023-04-01T15:03:18;1.73;;;0.77;;
23376;SDS011;14353;46.070;13.222;2023-04-01T15:05:51;1.20;;;0.90;;
23376;SDS011;14353;46.070;13.222;2023-04-01T15:11:15;2.08;;;1.00;;
23376;SDS011;14353;46.070;13.222;2023-04-01T15:38:10;2.88;;;0.95;;
23376;SDS011;14353;46.070;13.222;2023-04-01T15:41:14;3.03;;;0.90;;
23376;SDS011;14353;46.070;13.222;2023-04-01T15:44:33;1.25;;;0.70;;
23376;SDS011;14353;46.070;13.222;2023-04-01T15:47:31;2.20;;;0.70;;
23376;SDS011;14353;46.070;13.222;2023-04-01T15:55:31;4.05;;;0.88;;
23376;SDS011;14353;46.070;13.222;2023-04-01T16:03:48;1.50;;;0.63;;
23376;SDS011;14353;46.070;13.222;2023-04-01T16:16:50;1.13;;;0.70;;
23376;SDS011;14353;46.070;13.222;2023-04-01T16:22:13;2.22;;;0.60;;
23376;SDS011;14353;46.070;13.222;2023-04-01T16:24:55;1.08;;;0.50;;
23376;SDS011;14353;46.070;13.222;2023-04-01T16:27:36;2.10;;;0.80;;
23376;SDS011;14353;46.070;13.222;2023-04-01T16:30:38;1.40;;;0.70;;
23376;SDS011;14353;46.070;13.222;2023-04-01T16:33:44;1.73;;;0.90;;
23376;SDS011;14353;46.070;13.222;2023-04-01T16:36:29;1.48;;;0.65;;
23376;SDS011;14353;46.070;13.222;2023-04-01T16:44:31;1.55;;;0.70;;
23376;SDS011;14353;46.070;13.222;2023-04-01T16:47:46;1.08;;;0.63;;
23376;SDS011;14353;46.070;13.222;2023-04-01T16:50:22;1.55;;;0.77;;
23376;SDS011;14353;46.070;13.222;2023-04-01T16:53:14;1.50;;;0.70;;
23376;SDS011;14353;46.070;13.222;2023-04-01T16:55:47;1.50;;;0.65;;
23376;SDS011;14353;46.070;13.222;2023-04-01T17:01:02;1.95;;;0.70;;
23376;SDS011;14353;46.070;13.222;2023-04-01T17:14:37;1.17;;;0.60;;
23376;SDS011;14353;46.070;13.222;2023-04-01T17:17:38;0.90;;;0.57;;
23376;SDS011;14353;46.070;13.222;2023-04-01T17:23:13;0.82;;;0.50;;
23376;SDS011;14353;46.070;13.222;2023-04-01T17:26:40;1.65;;;0.70;;
23376;SDS011;14353;46.070;13.222;2023-04-01T17:28:57;1.20;;;0.70;;
23376;SDS011;14353;46.070;13.222;2023-04-01T17:45:18;1.80;;;0.63;;
23376;SDS011;14353;46.070;13.222;2023-04-01T17:53:30;1.40;;;0.60;;
23376;SDS011;14353;46.070;13.222;2023-04-01T18:01:37;1.23;;;0.60;;
23376;SDS011;14353;46.070;13.222;2023-04-01T18:04:24;1.25;;;0.55;;
23376;SDS011;14353;46.070;13.222;2023-04-01T18:09:37;1.48;;;0.70;;
23376;SDS011;14353;46.070;13.222;2023-04-01T18:21:08;1.73;;;0.80;;
23376;SDS011;14353;46.070;13.222;2023-04-01T18:23:48;1.48;;;0.50;;
23376;SDS011;14353;46.070;13.222;2023-04-01T18:26:36;0.73;;;0.50;;
23376;SDS011;14353;46.070;13.222;2023-04-01T18:31:51;1.27;;;0.57;;
23376;SDS011;14353;46.070;13.222;2023-04-01T18:34:38;1.80;;;0.60;;
23376;SDS011;14353;46.070;13.222;2023-04-01T18:39:49;1.63;;;0.55;;
23376;SDS011;14353;46.070;13.222;2023-04-01T18:48:14;1.30;;;0.70;;
23376;SDS011;14353;46.070;13.222;2023-04-01T18:50:54;1.10;;;0.70;;
23376;SDS011;14353;46.070;13.222;2023-04-01T18:53:47;1.13;;;0.68;;
23376;SDS011;14353;46.070;13.222;2023-04-01T18:56:35;0.95;;;0.70;;
23376;SDS011;14353;46.070;13.222;2023-04-01T19:02:02;1.42;;;0.60;;
23376;SDS011;14353;46.070;13.222;2023-04-01T19:05:07;1.95;;;0.60;;
23376;SDS011;14353;46.070;13.222;2023-04-01T19:07:49;0.85;;;0.70;;
23376;SDS011;14353;46.070;13.222;2023-04-01T19:13:02;1.08;;;0.63;;
23376;SDS011;14353;46.070;13.222;2023-04-01T19:21:12;0.93;;;0.70;;
23376;SDS011;14353;46.070;13.222;2023-04-01T19:26:26;1.58;;;0.80;;
23376;SDS011;14353;46.070;13.222;2023-04-01T19:29:16;1.73;;;0.70;;
23376;SDS011;14353;46.070;13.222;2023-04-01T19:32:04;1.17;;;0.68;;
23376;SDS011;14353;46.070;13.222;2023-04-01T19:40:06;0.82;;;0.60;;
23376;SDS011;14353;46.070;13.222;2023-04-01T19:48:04;1.63;;;0.50;;
23376;SDS011;14353;46.070;13.222;2023-04-01T19:50:55;0.77;;;0.50;;
23376;SDS011;14353;46.070;13.222;2023-04-01T19:56:16;0.90;;;0.70;;
23376;SDS011;14353;46.070;13.222;2023-04-01T19:58:48;1.50;;;0.90;;
23376;SDS011;14353;46.070;13.222;2023-04-01T20:04:27;0.60;;;0.60;;
23376;SDS011;14353;46.070;13.222;2023-04-01T20:07:24;1.35;;;0.60;;
23376;SDS011;14353;46.070;13.222;2023-04-01T20:10:32;0.70;;;0.60;;
23376;SDS011;14353;46.070;13.222;2023-04-01T20:13:28;1.38;;;0.70;;
23376;SDS011;14353;46.070;13.222;2023-04-01T20:16:07;1.50;;;0.85;;
23376;SDS011;14353;46.070;13.222;2023-04-01T20:21:36;1.13;;;0.70;;
23376;SDS011;14353;46.070;13.222;2023-04-01T20:26:59;0.60;;;0.60;;
23376;SDS011;14353;46.070;13.222;2023-04-01T20:29:36;0.55;;;0.55;;
23376;SDS011;14353;46.070;13.222;2023-04-01T20:32:10;1.00;;;0.68;;
23376;SDS011;14353;46.070;13.222;2023-04-01T20:35:06;0.70;;;0.60;;
23376;SDS011;14353;46.070;13.222;2023-04-01T20:40:41;0.60;;;0.60;;
23376;SDS011;14353;46.070;13.222;2023-04-01T20:45:55;0.93;;;0.70;;
23376;SDS011;14353;46.070;13.222;2023-04-01T20:51:21;1.17;;;0.70;;
23376;SDS011;14353;46.070;13.222;2023-04-01T21:08:04;0.75;;;0.70;;
23376;SDS011;14353;46.070;13.222;2023-04-01T21:10:40;1.15;;;0.90;;
23376;SDS011;14353;46.070;13.222;2023-04-01T21:29:50;2.42;;;0.90;;
23376;SDS011;14353;46.070;13.222;2023-04-01T21:37:49;1.02;;;0.80;;
23376;SDS011;14353;46.070;13.222;2023-04-01T21:40:58;1.98;;;0.60;;
23376;SDS011;14353;46.070;13.222;2023-04-01T22:00:15;0.60;;;0.60;;
23376;SDS011;14353;46.070;13.222;2023-04-01T22:10:37;0.90;;;0.70;;
23376;SDS011;14353;46.070;13.222;2023-04-01T22:13:18;0.85;;;0.85;;
23376;SDS011;14353;46.070;13.222;2023-04-01T22:21:45;1.33;;;0.90;;
23376;SDS011;14353;46.070;13.222;2023-04-01T22:30:25;1.55;;;0.80;;
23376;SDS011;14353;46.070;13.222;2023-04-01T22:32:56;1.58;;;0.90;;
23376;SDS011;14353;46.070;13.222;2023-04-01T22:43:49;1.02;;;0.93;;
23376;SDS011;14353;46.070;13.222;2023-04-01T22:51:38;1.00;;;0.93;;
23376;SDS011;14353;46.070;13.222;2023-04-01T22:57:36;0.90;;;0.80;;
23376;SDS011;14353;46.070;13.222;2023-04-01T23:02:38;1.75;;;0.90;;
23376;SDS011;14353;46.070;13.222;2023-04-01T23:05:09;1.33;;;1.10;;
23376;SDS011;14353;46.070;13.222;2023-04-01T23:13:08;0.73;;;0.73;;
23376;SDS011;14353;46.070;13.222;2023-04-01T23:15:43;1.83;;;1.00;;
23376;SDS011;14353;46.070;13.222;2023-04-01T23:18:15;1.27;;;0.90;;
23376;SDS011;14353;46.070;13.222;2023-04-01T23:20:51;1.25;;;0.90;;
23376;SDS011;14353;46.070;13.222;2023-04-01T23:33:56;1.48;;;1.10;;
23376;SDS011;14353;46.070;13.222;2023-04-01T23:36:22;1.00;;;0.90;;
23376;SDS011;14353;46.070;13.222;2023-04-01T23:38:48;1.38;;;1.00;;
23376;SDS011;14353;46.070;13.222;2023-04-01T23:41:28;1.88;;;1.20;;
23376;SDS011;14353;46.070;13.222;2023-04-01T23:43:57;1.42;;;0.90;;
23376;SDS011;14353;46.070;13.222;2023-04-01T23:46:31;1.33;;;1.08;;
23376;SDS011;14353;46.070;13.222;2023-04-01T23:49:00;1.00;;;0.90;;
23376;SDS011;14353;46.070;13.222;2023-04-01T23:51:27;1.17;;;1.08;;
23376;SDS011;14353;46.070;13.222;2023-04-01T23:54:10;1.10;;;1.00;;
23376;SDS011;14353;46.070;13.222;2023-04-01T23:56:51;1.42;;;0.98;;
23376;SDS011;14353;46.070;13.222;2023-04-01T23:59:29;1.63;;;1.20;;
